createdAt,value
2022-10-23T00:02:02.577Z,100.00
2022-10-23T00:04:29.313Z,100.00
2022-10-23T00:06:56.040Z,100.00
2022-10-23T00:09:24.532Z,100.00
2022-10-23T00:11:52.649Z,100.00
2022-10-23T00:14:26.236Z,100.00
2022-10-23T00:16:52.800Z,100.00
2022-10-23T00:19:19.665Z,100.00
2022-10-23T00:21:54.527Z,100.00
2022-10-23T00:24:24.283Z,100.00
2022-10-23T00:26:51.032Z,100.00
2022-10-23T00:29:17.745Z,100.00
2022-10-23T00:31:44.253Z,100.00
2022-10-23T00:34:11.113Z,100.00
2022-10-23T00:36:43.278Z,100.00
2022-10-23T00:39:09.760Z,100.00
2022-10-23T00:41:36.268Z,100.00
2022-10-23T00:44:38.028Z,100.00
2022-10-23T00:47:04.716Z,100.00
2022-10-23T00:49:33.537Z,100.00
2022-10-23T00:52:04.985Z,100.00
2022-10-23T00:54:34.563Z,100.00
2022-10-23T00:57:02.769Z,100.00
2022-10-23T00:59:32.115Z,100.00
2022-10-23T01:01:59.448Z,100.00
2022-10-23T01:04:27.691Z,100.00
2022-10-23T01:07:33.462Z,100.00
2022-10-23T01:10:13.996Z,100.00
2022-10-23T01:12:49.581Z,100.00
2022-10-23T01:15:41.817Z,100.00
2022-10-23T01:21:05.415Z,100.00
2022-10-23T01:24:01.135Z,100.00
2022-10-23T01:27:11.556Z,100.00
2022-10-23T01:29:59.436Z,100.00
2022-10-23T01:33:00.962Z,100.00
2022-10-23T01:35:38.106Z,100.00
2022-10-23T01:38:13.762Z,100.00
2022-10-23T01:40:48.781Z,100.00
2022-10-23T01:43:27.730Z,100.00
2022-10-23T01:46:05.339Z,100.00
2022-10-23T01:48:33.618Z,100.00
2022-10-23T01:51:04.714Z,100.00
2022-10-23T01:53:38.130Z,100.00
2022-10-23T01:56:09.746Z,100.00
2022-10-23T01:58:37.967Z,100.00
2022-10-23T02:01:07.902Z,100.00
2022-10-23T02:03:37.386Z,100.00
2022-10-23T02:06:06.386Z,100.00
2022-10-23T02:08:33.079Z,100.00
2022-10-23T02:11:14.523Z,100.00
2022-10-23T02:13:59.055Z,100.00
2022-10-23T02:16:42.653Z,100.00
2022-10-23T02:19:29.395Z,100.00
2022-10-23T02:22:04.029Z,100.00
2022-10-23T02:24:39.698Z,100.00
2022-10-23T02:27:13.529Z,100.00
2022-10-23T02:29:50.653Z,100.00
2022-10-23T02:32:20.271Z,100.00
2022-10-23T02:34:48.015Z,100.00
2022-10-23T02:37:18.656Z,100.00
2022-10-23T02:39:45.616Z,100.00
2022-10-23T02:42:22.518Z,100.00
2022-10-23T02:45:12.630Z,100.00
2022-10-23T02:47:58.796Z,100.00
2022-10-23T02:50:29.241Z,100.00
2022-10-23T02:53:14.532Z,100.00
2022-10-23T02:55:55.912Z,100.00
2022-10-23T02:58:32.418Z,100.00
2022-10-23T03:01:10.570Z,100.00
2022-10-23T03:03:45.793Z,100.00
2022-10-23T03:06:12.954Z,100.00
2022-10-23T03:08:44.514Z,100.00
2022-10-23T03:11:13.378Z,100.00
2022-10-23T03:13:42.199Z,100.00
2022-10-23T03:16:08.694Z,100.00
2022-10-23T03:18:35.805Z,100.00
2022-10-23T03:21:02.414Z,100.00
2022-10-23T03:23:28.892Z,100.00
2022-10-23T03:26:01.940Z,100.00
2022-10-23T03:28:28.501Z,100.00
2022-10-23T03:30:56.031Z,100.00
2022-10-23T03:33:24.570Z,100.00
2022-10-23T03:35:51.090Z,100.00
2022-10-23T03:38:17.881Z,100.00
2022-10-23T03:40:46.201Z,100.00
2022-10-23T03:43:12.714Z,100.00
2022-10-23T03:45:39.313Z,100.00
2022-10-23T03:48:08.601Z,100.00
2022-10-23T03:50:35.838Z,100.00
2022-10-23T03:53:02.323Z,100.00
2022-10-23T03:55:29.059Z,100.00
2022-10-23T04:00:23.358Z,100.00
2022-10-23T04:02:51.686Z,100.00
2022-10-23T04:05:18.189Z,100.00
2022-10-23T04:07:47.011Z,100.00
2022-10-23T04:10:15.256Z,100.00
2022-10-23T04:12:42.285Z,100.00
2022-10-23T04:15:09.224Z,100.00
2022-10-23T04:17:42.349Z,100.00
2022-10-23T04:20:09.411Z,100.00
2022-10-23T04:22:35.874Z,100.00
2022-10-23T04:25:02.674Z,100.00
2022-10-23T04:27:29.189Z,100.00
2022-10-23T04:29:59.124Z,100.00
2022-10-23T04:32:26.357Z,100.00
2022-10-23T04:34:52.870Z,100.00
2022-10-23T04:37:19.703Z,100.00
2022-10-23T04:39:51.436Z,100.00
2022-10-23T04:42:17.985Z,100.00
2022-10-23T04:44:44.486Z,100.00
2022-10-23T04:47:11.073Z,100.00
2022-10-23T04:49:37.819Z,100.00
2022-10-23T04:52:04.440Z,100.00
2022-10-23T04:54:36.797Z,100.00
2022-10-23T04:57:03.400Z,100.00
2022-10-23T04:59:29.947Z,100.00
2022-10-23T05:02:03.112Z,100.00
2022-10-23T05:04:29.651Z,100.00
2022-10-23T05:06:56.301Z,100.00
2022-10-23T05:09:24.629Z,100.00
2022-10-23T05:11:53.027Z,100.00
2022-10-23T05:14:22.681Z,100.00
2022-10-23T05:17:15.783Z,100.00
2022-10-23T05:19:46.546Z,100.00
2022-10-23T05:22:15.485Z,100.00
2022-10-23T05:24:46.943Z,100.00
2022-10-23T05:27:19.729Z,100.00
2022-10-23T05:29:46.595Z,100.00
2022-10-23T05:32:15.268Z,100.00
2022-10-23T05:34:42.809Z,100.00
2022-10-23T05:37:13.049Z,100.00
2022-10-23T05:39:44.292Z,100.00
2022-10-23T05:42:10.834Z,100.00
2022-10-23T05:44:37.439Z,100.00
2022-10-23T05:47:04.042Z,100.00
2022-10-23T05:49:30.580Z,100.00
2022-10-23T05:51:57.131Z,100.00
2022-10-23T05:54:23.782Z,100.00
2022-10-23T05:56:50.309Z,100.00
2022-10-23T05:59:20.420Z,100.00
2022-10-23T06:01:50.817Z,100.00
2022-10-23T06:04:28.098Z,100.00
2022-10-23T06:06:58.564Z,100.00
2022-10-23T06:09:25.406Z,100.00
2022-10-23T06:11:52.058Z,100.00
2022-10-23T06:14:18.582Z,100.00
2022-10-23T06:16:45.236Z,100.00
2022-10-23T06:19:12.738Z,100.00
2022-10-23T06:21:40.130Z,100.00
2022-10-23T06:24:07.512Z,100.00
2022-10-23T06:26:34.354Z,100.00
2022-10-23T06:29:00.983Z,100.00
2022-10-23T06:31:28.398Z,100.00
2022-10-23T06:33:58.151Z,100.00
2022-10-23T06:36:25.470Z,100.00
2022-10-23T06:38:52.352Z,100.00
2022-10-23T06:41:21.320Z,100.00
2022-10-23T06:43:49.872Z,100.00
2022-10-23T06:46:17.792Z,100.00
2022-10-23T06:48:46.823Z,100.00
2022-10-23T06:51:17.046Z,100.00
2022-10-23T06:53:44.582Z,100.00
2022-10-23T06:56:13.803Z,100.00
2022-10-23T06:58:42.563Z,100.00
2022-10-23T07:01:12.301Z,100.00
2022-10-23T07:03:39.123Z,100.00
2022-10-23T07:06:09.484Z,100.00
2022-10-23T07:08:37.013Z,100.00
2022-10-23T07:11:08.203Z,100.00
2022-10-23T07:13:36.435Z,99.18
2022-10-23T07:16:23.146Z,95.11
2022-10-23T07:18:58.674Z,89.25
2022-10-23T07:21:26.523Z,90.27
2022-10-23T07:23:53.052Z,87.24
2022-10-23T07:26:19.835Z,87.55
2022-10-23T07:28:50.299Z,84.58
2022-10-23T07:31:16.884Z,80.47
2022-10-23T07:33:45.710Z,85.22
2022-10-23T07:36:14.520Z,86.97
2022-10-23T07:38:41.309Z,88.70
2022-10-23T07:41:11.528Z,90.05
2022-10-23T07:43:39.815Z,86.38
2022-10-23T07:46:08.359Z,82.06
2022-10-23T07:48:34.818Z,80.96
2022-10-23T07:51:08.193Z,81.12
2022-10-23T07:53:35.898Z,80.87
2022-10-23T07:56:05.418Z,80.64
2022-10-23T07:58:33.617Z,74.80
2022-10-23T08:01:01.661Z,76.25
2022-10-23T08:03:30.702Z,77.61
2022-10-23T08:06:00.107Z,74.76
2022-10-23T08:08:27.253Z,77.49
2022-10-23T08:10:55.421Z,76.42
2022-10-23T08:13:28.909Z,75.22
2022-10-23T08:15:55.992Z,77.28
2022-10-23T08:18:22.588Z,76.57
2022-10-23T08:20:53.305Z,78.08
2022-10-23T08:23:20.284Z,79.84
2022-10-23T08:25:47.102Z,79.81
2022-10-23T08:28:15.404Z,78.84
2022-10-23T08:30:42.119Z,78.28
2022-10-23T08:33:09.329Z,79.39
2022-10-23T08:35:37.610Z,79.54
2022-10-23T08:38:04.952Z,83.00
2022-10-23T08:40:31.889Z,82.07
2022-10-23T08:43:21.775Z,81.91
2022-10-23T08:45:59.973Z,84.09
2022-10-23T08:48:33.321Z,84.61
2022-10-23T08:51:11.450Z,85.60
2022-10-23T08:53:52.939Z,87.37
2022-10-23T08:56:28.154Z,86.78
2022-10-23T08:59:02.569Z,86.72
2022-10-23T09:01:43.178Z,87.49
2022-10-23T09:04:14.530Z,87.98
2022-10-23T09:07:17.437Z,88.34
2022-10-23T09:09:50.468Z,88.91
2022-10-23T09:12:24.390Z,88.59
2022-10-23T09:15:17.141Z,88.27
2022-10-23T09:17:44.517Z,88.19
2022-10-23T09:20:14.406Z,89.03
2022-10-23T09:22:42.197Z,88.39
2022-10-23T09:25:18.344Z,88.50
2022-10-23T09:27:54.781Z,86.99
2022-10-23T09:30:36.288Z,85.77
2022-10-23T09:33:25.191Z,83.48
2022-10-23T09:36:04.317Z,82.44
2022-10-23T09:38:36.913Z,84.00
2022-10-23T09:41:13.202Z,83.17
2022-10-23T09:43:40.117Z,83.48
2022-10-23T09:46:07.466Z,81.79
2022-10-23T09:48:34.604Z,83.23
2022-10-23T09:51:04.022Z,82.88
2022-10-23T09:53:39.138Z,80.58
2022-10-23T09:56:28.591Z,79.27
2022-10-23T09:58:59.001Z,77.94
2022-10-23T10:01:28.917Z,78.88
2022-10-23T10:04:00.363Z,79.57
2022-10-23T10:06:30.016Z,79.42
2022-10-23T10:09:28.059Z,80.14
2022-10-23T10:11:59.274Z,78.56
2022-10-23T10:14:34.661Z,78.96
2022-10-23T10:17:04.590Z,78.09
2022-10-23T10:19:52.479Z,80.51
2022-10-23T10:22:39.480Z,79.88
2022-10-23T10:25:38.301Z,78.15
2022-10-23T10:28:29.707Z,75.08
2022-10-23T10:31:26.551Z,76.25
2022-10-23T10:34:20.563Z,76.77
2022-10-23T10:36:56.364Z,77.17
2022-10-23T10:39:31.897Z,75.20
2022-10-23T10:42:18.695Z,75.03
2022-10-23T10:44:50.246Z,74.34
2022-10-23T10:47:21.259Z,69.51
2022-10-23T10:50:07.775Z,72.00
2022-10-23T10:52:48.313Z,71.19
2022-10-23T10:55:28.341Z,67.11
2022-10-23T10:58:04.870Z,68.71
2022-10-23T11:00:34.051Z,71.41
2022-10-23T11:03:11.408Z,71.90
2022-10-23T11:05:45.327Z,74.62
2022-10-23T11:08:22.299Z,73.76
2022-10-23T11:10:53.597Z,75.86
2022-10-23T11:13:35.996Z,76.21
2022-10-23T11:16:10.394Z,76.18
2022-10-23T11:18:40.679Z,77.30
2022-10-23T11:21:20.684Z,75.80
2022-10-23T11:24:11.313Z,75.00
2022-10-23T11:26:47.139Z,73.96
2022-10-23T11:30:03.341Z,75.08
2022-10-23T11:32:42.435Z,73.35
2022-10-23T11:35:14.971Z,70.55
2022-10-23T11:37:41.914Z,71.80
2022-10-23T11:40:08.507Z,73.53
2022-10-23T11:42:41.029Z,72.25
2022-10-23T11:45:28.206Z,72.26
2022-10-23T11:48:14.049Z,73.02
2022-10-23T11:50:46.476Z,74.73
2022-10-23T11:53:24.960Z,75.98
2022-10-23T11:55:58.878Z,76.10
2022-10-23T11:58:40.998Z,76.46
2022-10-23T12:01:26.465Z,75.32
2022-10-23T12:03:58.314Z,76.06
2022-10-23T12:06:29.715Z,76.19
2022-10-23T12:09:01.848Z,77.07
2022-10-23T12:11:41.731Z,80.24
2022-10-23T12:14:32.704Z,82.99
2022-10-23T12:17:02.156Z,86.79
2022-10-23T12:19:31.142Z,89.70
2022-10-23T12:22:01.070Z,90.68
2022-10-23T12:24:48.746Z,91.53
2022-10-23T12:27:26.351Z,92.37
2022-10-23T12:30:11.421Z,92.66
2022-10-23T12:32:37.832Z,92.94
2022-10-23T12:35:18.288Z,92.67
2022-10-23T12:37:51.570Z,91.89
2022-10-23T12:40:18.408Z,91.16
2022-10-23T12:42:55.379Z,90.65
2022-10-23T12:45:26.907Z,89.96
2022-10-23T12:47:54.124Z,89.44
2022-10-23T12:50:20.740Z,88.27
2022-10-23T12:53:01.075Z,87.59
2022-10-23T12:55:33.603Z,86.76
2022-10-23T12:58:02.325Z,86.45
2022-10-23T13:00:29.436Z,87.00
2022-10-23T13:03:00.845Z,87.16
2022-10-23T13:05:30.334Z,87.47
2022-10-23T13:07:59.393Z,89.08
2022-10-23T13:10:26.539Z,89.52
2022-10-23T13:13:02.813Z,90.86
2022-10-23T13:15:40.789Z,91.10
2022-10-23T13:18:09.072Z,91.02
2022-10-23T13:20:55.600Z,90.94
2022-10-23T13:23:34.375Z,91.67
2022-10-23T13:26:05.313Z,91.33
2022-10-23T13:28:33.417Z,90.32
2022-10-23T13:31:02.972Z,89.37
2022-10-23T13:33:37.120Z,87.83
2022-10-23T13:36:15.301Z,86.90
2022-10-23T13:39:03.687Z,87.90
2022-10-23T13:41:36.932Z,88.52
2022-10-23T13:44:03.804Z,88.27
2022-10-23T13:46:32.641Z,89.69
2022-10-23T13:48:59.105Z,90.79
2022-10-23T13:51:28.618Z,91.63
2022-10-23T13:53:56.799Z,90.86
2022-10-23T13:56:25.593Z,90.50
2022-10-23T13:58:52.076Z,90.44
2022-10-23T14:01:40.213Z,89.32
2022-10-23T14:04:07.549Z,90.72
2022-10-23T14:06:34.352Z,90.79
2022-10-23T14:09:02.754Z,91.11
2022-10-23T14:11:29.292Z,91.64
2022-10-23T14:13:58.090Z,92.23
2022-10-23T14:16:24.728Z,91.41
2022-10-23T14:18:51.350Z,89.29
2022-10-23T14:21:20.198Z,88.46
2022-10-23T14:23:54.004Z,87.59
2022-10-23T14:26:27.489Z,86.16
2022-10-23T14:28:55.691Z,86.32
2022-10-23T14:31:22.988Z,86.67
2022-10-23T14:33:55.942Z,85.97
2022-10-23T14:36:23.675Z,85.02
2022-10-23T14:38:59.037Z,85.49
2022-10-23T14:41:26.623Z,87.01
2022-10-23T14:43:58.783Z,88.00
2022-10-23T14:46:25.851Z,88.64
2022-10-23T14:49:02.345Z,88.87
2022-10-23T14:51:30.576Z,90.18
2022-10-23T14:54:03.639Z,91.04
2022-10-23T14:56:32.728Z,90.73
2022-10-23T14:59:04.699Z,91.34
2022-10-23T15:01:33.645Z,91.61
2022-10-23T15:04:00.478Z,92.22
2022-10-23T15:06:29.454Z,91.94
2022-10-23T15:08:56.020Z,92.27
2022-10-23T15:11:24.182Z,92.64
2022-10-23T15:13:53.225Z,93.06
2022-10-23T15:16:20.530Z,92.37
2022-10-23T15:18:47.121Z,91.29
2022-10-23T15:21:14.804Z,90.94
2022-10-23T15:23:43.760Z,90.46
2022-10-23T15:26:21.763Z,89.85
2022-10-23T15:28:53.399Z,88.69
2022-10-23T15:31:35.683Z,88.58
2022-10-23T15:34:02.178Z,87.82
2022-10-23T15:36:28.904Z,88.40
2022-10-23T15:38:57.576Z,87.30
2022-10-23T15:41:29.367Z,85.74
2022-10-23T15:43:56.147Z,84.83
2022-10-23T15:46:22.834Z,83.28
2022-10-23T15:48:52.696Z,83.34
2022-10-23T15:51:19.557Z,83.16
2022-10-23T15:53:46.273Z,81.90
2022-10-23T15:56:12.918Z,82.32
2022-10-23T15:58:41.347Z,81.93
2022-10-23T16:01:08.172Z,80.39
2022-10-23T16:03:38.770Z,80.66
2022-10-23T16:06:07.281Z,81.24
2022-10-23T16:08:35.686Z,81.72
2022-10-23T16:11:03.182Z,82.79
2022-10-23T16:13:29.711Z,82.49
2022-10-23T16:15:59.961Z,83.39
2022-10-23T16:18:26.463Z,84.16
2022-10-23T16:20:55.555Z,84.73
2022-10-23T16:23:30.380Z,84.90
2022-10-23T16:25:56.847Z,84.91
2022-10-23T16:28:23.365Z,85.25
2022-10-23T16:30:50.097Z,85.75
2022-10-23T16:33:16.565Z,85.67
2022-10-23T16:35:43.393Z,86.22
2022-10-23T16:38:11.602Z,86.36
2022-10-23T16:40:38.097Z,87.03
2022-10-23T16:43:04.782Z,87.61
2022-10-23T16:45:34.397Z,88.32
2022-10-23T16:48:03.721Z,89.59
2022-10-23T16:50:30.340Z,89.82
2022-10-23T16:52:58.563Z,90.03
2022-10-23T16:55:25.035Z,90.24
2022-10-23T16:57:51.552Z,90.35
2022-10-23T17:00:24.354Z,91.42
2022-10-23T17:02:50.802Z,92.04
2022-10-23T17:05:17.316Z,92.55
2022-10-23T17:07:45.860Z,92.96
2022-10-23T17:10:14.838Z,93.01
2022-10-23T17:12:41.326Z,94.02
2022-10-23T17:15:08.878Z,94.37
2022-10-23T17:17:35.409Z,94.71
2022-10-23T17:20:01.880Z,94.83
2022-10-23T17:22:28.527Z,94.73
2022-10-23T17:24:55.002Z,94.97
2022-10-23T17:27:21.536Z,94.51
2022-10-23T17:29:49.764Z,93.44
2022-10-23T17:32:16.613Z,93.65
2022-10-23T17:34:43.122Z,93.12
2022-10-23T17:37:12.440Z,92.74
2022-10-23T17:39:40.464Z,93.10
2022-10-23T17:45:04.564Z,91.89
2022-10-23T17:47:31.068Z,90.68
2022-10-23T17:49:57.547Z,90.97
2022-10-23T17:52:24.078Z,91.19
2022-10-23T17:54:53.657Z,90.96
2022-10-23T17:57:27.594Z,90.19
2022-10-23T17:59:54.240Z,90.21
2022-10-23T18:02:20.830Z,90.32
2022-10-23T18:04:47.537Z,90.44
2022-10-23T18:07:15.656Z,90.29
2022-10-23T18:09:42.587Z,90.44
2022-10-23T18:12:12.725Z,90.46
2022-10-23T18:14:39.252Z,90.33
2022-10-23T18:17:05.792Z,90.62
2022-10-23T18:19:34.549Z,89.71
2022-10-23T18:22:01.017Z,88.76
2022-10-23T18:27:24.251Z,88.33
2022-10-23T18:29:51.109Z,87.90
2022-10-23T18:32:17.599Z,87.42
2022-10-23T18:34:44.206Z,87.47
2022-10-23T18:37:10.699Z,88.09
2022-10-23T18:39:37.416Z,88.47
2022-10-23T18:42:04.449Z,87.10
2022-10-23T18:44:30.978Z,84.52
2022-10-23T18:46:59.292Z,84.99
2022-10-23T18:49:28.495Z,83.38
2022-10-23T18:51:55.658Z,81.08
2022-10-23T18:54:22.261Z,69.87
2022-10-23T18:56:51.412Z,61.62
2022-10-23T18:59:20.356Z,58.92
2022-10-23T19:01:47.226Z,55.50
2022-10-23T19:04:15.957Z,58.39
2022-10-23T19:06:42.835Z,57.53
2022-10-23T19:09:13.685Z,56.55
2022-10-23T19:11:43.458Z,55.04
2022-10-23T19:14:10.235Z,54.29
2022-10-23T19:16:46.131Z,53.26
2022-10-23T19:19:21.327Z,52.54
2022-10-23T19:24:19.264Z,52.17
2022-10-23T19:26:46.211Z,51.98
2022-10-23T19:29:18.604Z,49.87
2022-10-23T19:31:49.283Z,50.98
2022-10-23T19:34:21.582Z,50.88
2022-10-23T19:36:48.697Z,51.86
2022-10-23T19:39:16.036Z,53.59
2022-10-23T19:41:43.080Z,50.99
2022-10-23T19:44:09.588Z,50.17
2022-10-23T19:46:37.208Z,49.17
2022-10-23T19:49:05.352Z,49.89
2022-10-23T19:51:32.590Z,48.19
2022-10-23T19:53:59.079Z,49.02
2022-10-23T19:56:27.830Z,48.69
2022-10-23T19:58:54.706Z,49.52
2022-10-23T20:01:24.497Z,50.43
2022-10-23T20:03:51.688Z,51.20
2022-10-23T20:06:24.836Z,51.35
2022-10-23T20:08:51.949Z,52.03
2022-10-23T20:11:25.484Z,52.87
2022-10-23T20:13:52.633Z,53.65
2022-10-23T20:16:21.602Z,53.64
2022-10-23T20:18:49.383Z,54.10
2022-10-23T20:21:16.275Z,53.77
2022-10-23T20:23:43.311Z,54.36
2022-10-23T20:26:12.995Z,54.72
2022-10-23T20:28:39.511Z,54.47
2022-10-23T20:31:08.539Z,54.14
2022-10-23T20:33:36.478Z,54.72
2022-10-23T20:36:04.479Z,55.62
2022-10-23T20:38:31.162Z,55.54
2022-10-23T20:41:00.508Z,55.94
2022-10-23T20:43:27.414Z,56.39
2022-10-23T20:45:53.969Z,57.50
2022-10-23T20:48:32.409Z,56.76
2022-10-23T20:51:02.913Z,57.27
2022-10-23T20:53:29.689Z,57.33
2022-10-23T20:55:58.189Z,57.83
2022-10-23T20:58:24.699Z,58.33
2022-10-23T21:03:27.271Z,59.34
2022-10-23T21:05:53.789Z,59.49
2022-10-23T21:08:20.235Z,59.48
2022-10-23T21:10:47.895Z,59.85
2022-10-23T21:13:14.397Z,59.86
2022-10-23T21:15:45.511Z,60.43
2022-10-23T21:18:26.418Z,60.19
2022-10-23T21:21:00.366Z,60.73
2022-10-23T21:23:28.890Z,60.15
2022-10-23T21:25:55.343Z,60.16
2022-10-23T21:28:21.848Z,58.75
2022-10-23T21:30:48.328Z,58.07
2022-10-23T21:33:14.789Z,57.84
2022-10-23T21:35:52.200Z,56.95
2022-10-23T21:38:25.556Z,56.61
2022-10-23T21:40:55.623Z,57.62
2022-10-23T21:43:22.188Z,58.07
2022-10-23T21:45:48.846Z,59.01
2022-10-23T21:48:15.305Z,60.72
2022-10-23T21:50:42.081Z,59.75
2022-10-23T21:53:10.346Z,60.63
2022-10-23T21:55:36.885Z,62.21
2022-10-23T21:58:03.398Z,62.91
2022-10-23T22:00:31.597Z,63.88
2022-10-23T22:03:00.045Z,63.00
2022-10-23T22:05:26.499Z,62.71
2022-10-23T22:07:53.026Z,62.11
2022-10-23T22:10:19.523Z,61.94
2022-10-23T22:12:46.017Z,60.74
2022-10-23T22:15:21.223Z,60.17
2022-10-23T22:17:47.726Z,60.33
2022-10-23T22:20:14.239Z,59.55
2022-10-23T22:22:40.753Z,59.70
2022-10-23T22:25:07.645Z,60.11
2022-10-23T22:27:34.428Z,57.79
2022-10-23T22:30:05.547Z,59.69
2022-10-23T22:32:32.098Z,59.86
2022-10-23T22:34:58.590Z,58.86
2022-10-23T22:37:29.789Z,59.19
2022-10-23T22:39:56.232Z,57.97
2022-10-23T22:42:22.710Z,58.19
2022-10-23T22:44:51.366Z,58.26
2022-10-23T22:47:17.887Z,57.13
2022-10-23T22:49:44.565Z,57.76
2022-10-23T22:52:12.781Z,57.95
2022-10-23T22:54:39.351Z,58.58
2022-10-23T22:57:05.830Z,59.09
2022-10-23T22:59:37.401Z,57.63
2022-10-23T23:02:04.102Z,57.02
2022-10-23T23:04:38.888Z,57.59
2022-10-23T23:07:12.387Z,55.90
2022-10-23T23:09:41.276Z,56.31
2022-10-23T23:12:09.391Z,54.50
2022-10-23T23:14:36.474Z,55.02
2022-10-23T23:17:03.677Z,56.01
2022-10-23T23:19:30.394Z,55.28
2022-10-23T23:22:03.943Z,56.75
2022-10-23T23:24:30.465Z,57.83
2022-10-23T23:26:57.014Z,59.13
2022-10-23T23:29:23.640Z,59.26
2022-10-23T23:31:53.560Z,59.56
2022-10-23T23:34:20.902Z,60.28
2022-10-23T23:36:47.516Z,60.33
2022-10-23T23:39:14.030Z,60.33
2022-10-23T23:41:40.475Z,60.13
2022-10-23T23:44:14.710Z,59.57
2022-10-23T23:46:41.211Z,59.52
2022-10-23T23:49:07.701Z,60.83
2022-10-23T23:51:34.394Z,59.38
2022-10-23T23:54:00.926Z,59.76
2022-10-23T23:56:28.152Z,60.17
2022-10-23T23:58:56.619Z,60.53
